Flight Track Log - Related Links

Times and Time Zones

All times are in EDT time to prevent confusion due to time zone crossing. See the UAL623 flight status page for this flight to view local times or setup timezone preferences in your user account.


Time Position Orientation Groundspeed Altitude Reporting Facility
EDT Latitude Longitude Course Direction KTS MPH feet Rate Location/Type
Mon 04:13:33 PM 41.1164 -81.7075 263° West 299 344 9,900  Level Cleveland Center
Mon 04:14:39 PM 41.3961 -81.8814 335° Northwest 157 181 1,700 -2,250 Descending Cleveland Center
Mon 04:15:57 PM 41.3950 -81.9728 269° West 224 258 4,500 2,368 Climbing Cleveland Center
Mon 04:16:33 PM 41.3903 -82.0142 261° West 244 281 6,200 3,313 Climbing Cleveland Center
Mon 04:17:33 PM 41.3767 -82.1050 259° West 259 298 9,800 3,600 Climbing Cleveland Center
Mon 04:18:00 PM 41.3371 -82.3093 263° West  Level FlightAware Approximate
Mon 04:18:33 PM 41.3586 -82.2042 256° West 264 304 13,400  Level Cleveland Center
Mon 04:19:33 PM 41.3425 -82.3089 258° West 280 322 16,500 2,800 Climbing Cleveland Center
Mon 04:20:33 PM 41.3261 -82.4192 259° West 300 345 19,000 2,400 Climbing Cleveland Center
Mon 04:21:33 PM 41.3075 -82.5292 257° West 305 351 21,300 2,200 Climbing Cleveland Center
Mon 04:22:33 PM 41.2908 -82.6586 260° West 317 365 23,400 2,100 Climbing Cleveland Center
Mon 04:23:33 PM 41.2739 -82.7797 259° West 336 387 25,500 1,750 Climbing Cleveland Center
Mon 04:24:33 PM 41.2567 -82.9061 260° West 336 387 26,900 1,500 Climbing Cleveland Center
Mon 04:25:33 PM 41.2583 -83.0331 271° West 343 395 28,500 1,500 Climbing Cleveland Center
Mon 04:26:33 PM 41.2933 -83.1422 293° West 324 373 29,900 750 Climbing Cleveland Center
Mon 04:27:33 PM 41.3264 -83.2514 292° West 324 373 30,000  Climbing Cleveland Center
Mon 04:28:33 PM 41.3653 -83.3719 293° West 336 387 29,900 -50 Descending Cleveland Center
Mon 04:29:33 PM 41.4078 -83.5042 293° West 360 414 29,900 50 Level Cleveland Center
Mon 04:30:33 PM 41.4289 -83.6517 281° West 383 441 30,000 50 Climbing Cleveland Center
Mon 04:31:33 PM 41.4189 -83.7925 265° West 410 472 30,000  Level Cleveland Center
Mon 04:33:10 PM 41.3603 -84.0647 254° West 454 522 30,000 -38 Level Chicago Center
Mon 04:34:12 PM 41.3439 -84.2236 262° West 432 497 29,900 -48 Descending Chicago Center
Mon 04:35:14 PM 41.3406 -84.3808 268° West 424 488 29,900 48 Level Chicago Center
Mon 04:36:17 PM 41.3361 -84.5403 268° West 430 495 30,000 48 Climbing Chicago Center
Mon 04:37:19 PM 41.3314 -84.6994 268° West 430 495 30,000  Level Chicago Center
Mon 04:38:21 PM 41.3253 -84.8886 268° West 426 490 30,000 -48 Level Chicago Center
Mon 04:39:23 PM 41.3239 -85.0467 269° West 426 490 29,900 -48 Descending Chicago Center
Mon 04:40:25 PM 41.3200 -85.2047 268° West 426 490 29,900  Level Chicago Center
Mon 04:41:27 PM 41.3139 -85.3650 267° West 428 493 29,900  Level Chicago Center
Mon 04:42:29 PM 41.3064 -85.5264 267° West 432 497 29,900 -677 Level Chicago Center
Mon 04:43:31 PM 41.2992 -85.6900 267° West 436 502 28,500 -1,839 Descending Chicago Center
Mon 04:44:33 PM 41.2917 -85.8492 266° West 429 494 26,100 -1,742 Descending Chicago Center
Mon 04:45:35 PM 41.2839 -86.0308 267° West 408 470 24,900 -532 Descending Chicago Center
Mon 04:46:37 PM 41.3158 -86.1667 287° West 381 438 25,000  Climbing Chicago Center
Mon 04:47:40 PM 41.3486 -86.3003 288° West 380 437 24,900 -48 Descending Chicago Center
Mon 04:48:42 PM 41.3836 -86.4336 289° West 381 438 24,900  Level Chicago Center
Mon 04:49:44 PM 41.4161 -86.5689 288° West 384 442 24,900 -1,210 Level Chicago Center
Mon 04:50:46 PM 41.4489 -86.7031 288° West 382 440 22,400 -2,516 Descending Chicago Center
Mon 04:51:48 PM 41.4831 -86.8406 288° West 369 425 19,700 -2,419 Descending Chicago Center
Mon 04:52:50 PM 41.5139 -86.9656 288° West 359 413 17,400 -2,613 Descending Chicago Center
Mon 04:53:52 PM 41.5489 -87.1114 288° West 349 402 14,300 -2,809 Descending Chicago Center
Mon 04:54:24 PM 41.5667 -87.1833 288° West 336 387 13,000 -1,408 Descending Chicago TRACON
Mon 04:55:30 PM 41.6000 -87.2833 294° West 315 362 12,000 -652 Descending Chicago TRACON
Mon 04:55:56 PM 41.6253 -87.3244 309° West 323 372 12,000  Level Chicago Center
Mon 04:56:58 PM 41.6814 -87.4142 310° West 319 367 12,000 -387 Level Chicago Center
Mon 04:58:00 PM 41.7472 -87.5211 310° West 314 361 11,200 -968 Descending Chicago Center
Mon 04:59:02 PM 41.8008 -87.6050 311° West 302 348 10,000 -1,187 Descending Chicago Center
Mon 04:59:31 PM 41.8333 -87.6500 314° West 263 303 9,400 -1,213 Descending Chicago TRACON
Mon 05:00:31 PM 41.8667 -87.7333 298° West 255 293 8,200 -700 Descending Chicago TRACON
Mon 05:01:31 PM 41.8667 -87.8167 270° West 227 261 8,000 -650 Descending Chicago TRACON
Mon 05:02:31 PM 41.9000 -87.8833 304° West 214 246 6,900 -550 Descending Chicago TRACON
Mon 05:03:31 PM 41.9167 -87.9500 289° West 218 251 6,900  Level Chicago TRACON
Mon 05:05:15 PM 41.9092 -88.0675 265° West 191 220 6,900 50 Level Chicago Center
Mon 05:05:31 PM 41.9000 -88.0833 232° Southwest 188 216 7,000 97 Climbing Chicago TRACON
Mon 05:06:17 PM 41.8908 -88.1328 256° West 189 217 7,000 -56 Level Chicago Center
Mon 05:07:19 PM 41.8914 -88.2008 271° West 186 214 6,900 -629 Descending Chicago Center
Mon 05:08:21 PM 41.8967 -88.2775 275° West 181 208 5,700 -919 Descending Chicago Center
Mon 05:09:23 PM 41.9481 -88.2781 360° North 192 221 5,000 -387 Descending Chicago Center
Mon 05:10:25 PM 41.9664 -88.2158 68° East 194 223 4,900 -629 Descending Chicago Center
Mon 05:11:27 PM 41.9689 -88.1453 87° East 193 222 3,700 -1,065 Descending Chicago Center
Mon 05:12:29 PM 41.9686 -88.0756 90° East 190 219 2,700 -968 Descending Chicago Center

Login

Don't have an account? Register now (free) for customized features, flight alerts, and more!